sensor_id;sensor_type;location;lat;lon;timestamp;pressure;altitude;pressure_sealevel;temperature;humidity
13593;BME280;6867;50.998;4.250;2023-04-19T00:00:41;102195.16;;;11.31;67.38
13593;BME280;6867;50.998;4.250;2023-04-19T00:03:09;102202.44;;;11.22;68.03
13593;BME280;6867;50.998;4.250;2023-04-19T00:05:37;102207.06;;;11.05;67.97
13593;BME280;6867;50.998;4.250;2023-04-19T00:08:04;102215.25;;;11.12;68.09
13593;BME280;6867;50.998;4.250;2023-04-19T00:10:31;102211.25;;;11.08;68.31
13593;BME280;6867;50.998;4.250;2023-04-19T00:12:58;102212.09;;;11.08;68.34
13593;BME280;6867;50.998;4.250;2023-04-19T00:15:25;102221.53;;;11.04;68.18
13593;BME280;6867;50.998;4.250;2023-04-19T00:17:51;102213.50;;;10.96;68.21
13593;BME280;6867;50.998;4.250;2023-04-19T00:20:19;102210.81;;;10.96;68.44
13593;BME280;6867;50.998;4.250;2023-04-19T00:22:47;102210.63;;;10.97;68.92
13593;BME280;6867;50.998;4.250;2023-04-19T00:25:14;102200.59;;;10.91;68.82
13593;BME280;6867;50.998;4.250;2023-04-19T00:27:41;102212.31;;;10.90;68.62
13593;BME280;6867;50.998;4.250;2023-04-19T00:30:08;102215.53;;;10.86;69.02
13593;BME280;6867;50.998;4.250;2023-04-19T00:32:35;102205.97;;;10.91;68.67
13593;BME280;6867;50.998;4.250;2023-04-19T00:35:01;102202.63;;;10.81;68.73
13593;BME280;6867;50.998;4.250;2023-04-19T00:37:28;102199.94;;;10.81;69.16
13593;BME280;6867;50.998;4.250;2023-04-19T00:39:56;102211.91;;;10.79;69.21
13593;BME280;6867;50.998;4.250;2023-04-19T00:42:23;102213.06;;;10.76;69.17
13593;BME280;6867;50.998;4.250;2023-04-19T00:44:49;102211.94;;;10.62;69.53
13593;BME280;6867;50.998;4.250;2023-04-19T00:47:16;102208.38;;;10.70;69.78
13593;BME280;6867;50.998;4.250;2023-04-19T00:49:43;102205.19;;;10.75;69.05
13593;BME280;6867;50.998;4.250;2023-04-19T00:52:10;102202.00;;;10.71;68.95
13593;BME280;6867;50.998;4.250;2023-04-19T00:54:37;102191.38;;;10.78;69.31
13593;BME280;6867;50.998;4.250;2023-04-19T00:57:06;102205.03;;;10.68;69.78
13593;BME280;6867;50.998;4.250;2023-04-19T00:59:33;102205.56;;;10.63;69.84
13593;BME280;6867;50.998;4.250;2023-04-19T01:02:00;102211.13;;;10.62;69.72
13593;BME280;6867;50.998;4.250;2023-04-19T01:04:27;102191.94;;;10.65;69.76
13593;BME280;6867;50.998;4.250;2023-04-19T01:06:53;102191.63;;;10.60;69.63
13593;BME280;6867;50.998;4.250;2023-04-19T01:09:21;102189.47;;;10.47;69.14
13593;BME280;6867;50.998;4.250;2023-04-19T01:11:50;102200.03;;;10.48;69.91
13593;BME280;6867;50.998;4.250;2023-04-19T01:14:19;102205.09;;;10.43;70.44
13593;BME280;6867;50.998;4.250;2023-04-19T01:16:46;102204.81;;;10.30;70.91
13593;BME280;6867;50.998;4.250;2023-04-19T01:19:13;102207.78;;;10.43;70.52
13593;BME280;6867;50.998;4.250;2023-04-19T01:21:41;102189.31;;;10.40;70.25
13593;BME280;6867;50.998;4.250;2023-04-19T01:24:09;102211.31;;;10.36;70.53
13593;BME280;6867;50.998;4.250;2023-04-19T01:26:36;102205.13;;;10.35;70.11
13593;BME280;6867;50.998;4.250;2023-04-19T01:29:05;102199.41;;;10.38;70.68
13593;BME280;6867;50.998;4.250;2023-04-19T01:31:31;102206.78;;;10.36;70.60
13593;BME280;6867;50.998;4.250;2023-04-19T01:33:58;102205.13;;;10.35;70.98
13593;BME280;6867;50.998;4.250;2023-04-19T01:36:25;102205.31;;;10.26;70.49
13593;BME280;6867;50.998;4.250;2023-04-19T01:38:52;102207.28;;;10.15;71.21
13593;BME280;6867;50.998;4.250;2023-04-19T01:41:20;102199.25;;;10.07;70.92
13593;BME280;6867;50.998;4.250;2023-04-19T01:43:51;102213.38;;;10.01;71.00
13593;BME280;6867;50.998;4.250;2023-04-19T01:46:17;102200.94;;;10.16;70.92
13593;BME280;6867;50.998;4.250;2023-04-19T01:48:44;102192.19;;;10.14;70.84
13593;BME280;6867;50.998;4.250;2023-04-19T01:51:11;102193.41;;;10.12;71.45
13593;BME280;6867;50.998;4.250;2023-04-19T01:53:37;102198.41;;;10.15;71.35
13593;BME280;6867;50.998;4.250;2023-04-19T01:56:04;102201.94;;;10.15;70.89
13593;BME280;6867;50.998;4.250;2023-04-19T01:58:32;102199.22;;;10.23;71.16
13593;BME280;6867;50.998;4.250;2023-04-19T02:00:59;102196.22;;;10.35;70.87
13593;BME280;6867;50.998;4.250;2023-04-19T02:03:26;102187.63;;;10.47;70.36
13593;BME280;6867;50.998;4.250;2023-04-19T02:05:53;102192.13;;;10.63;70.97
13593;BME280;6867;50.998;4.250;2023-04-19T02:08:19;102186.34;;;10.83;70.20
13593;BME280;6867;50.998;4.250;2023-04-19T02:10:46;102179.69;;;11.02;70.04
13593;BME280;6867;50.998;4.250;2023-04-19T02:13:13;102164.09;;;11.20;69.27
13593;BME280;6867;50.998;4.250;2023-04-19T02:15:41;102147.50;;;11.16;68.79
13593;BME280;6867;50.998;4.250;2023-04-19T02:18:08;102152.59;;;11.34;68.88
13593;BME280;6867;50.998;4.250;2023-04-19T02:20:36;102146.63;;;11.47;68.53
13593;BME280;6867;50.998;4.250;2023-04-19T02:23:02;102140.63;;;11.60;68.32
13593;BME280;6867;50.998;4.250;2023-04-19T02:25:29;102130.75;;;11.75;67.89
13593;BME280;6867;50.998;4.250;2023-04-19T02:27:56;102119.84;;;11.91;67.26
13593;BME280;6867;50.998;4.250;2023-04-19T02:30:22;102119.00;;;11.91;67.19
13593;BME280;6867;50.998;4.250;2023-04-19T02:32:50;102129.25;;;11.95;67.36
13593;BME280;6867;50.998;4.250;2023-04-19T02:35:19;102117.91;;;12.00;66.70
13593;BME280;6867;50.998;4.250;2023-04-19T02:37:45;102110.38;;;12.10;66.64
13593;BME280;6867;50.998;4.250;2023-04-19T02:40:12;102114.94;;;12.10;66.29
13593;BME280;6867;50.998;4.250;2023-04-19T02:42:39;102113.75;;;12.12;66.59
13593;BME280;6867;50.998;4.250;2023-04-19T02:45:07;102112.53;;;12.30;66.31
13593;BME280;6867;50.998;4.250;2023-04-19T02:47:34;102107.97;;;12.15;66.27
13593;BME280;6867;50.998;4.250;2023-04-19T02:50:02;102107.69;;;12.10;66.27
13593;BME280;6867;50.998;4.250;2023-04-19T02:52:29;102090.69;;;12.25;65.93
13593;BME280;6867;50.998;4.250;2023-04-19T02:54:55;102100.34;;;12.34;65.90
13593;BME280;6867;50.998;4.250;2023-04-19T02:57:22;102086.06;;;12.33;65.74
13593;BME280;6867;50.998;4.250;2023-04-19T02:59:49;102103.63;;;12.29;65.97
13593;BME280;6867;50.998;4.250;2023-04-19T03:02:15;102100.81;;;12.37;65.71
13593;BME280;6867;50.998;4.250;2023-04-19T03:04:42;102095.50;;;12.44;65.71
13593;BME280;6867;50.998;4.250;2023-04-19T03:07:10;102088.00;;;12.39;65.60
13593;BME280;6867;50.998;4.250;2023-04-19T03:09:37;102100.69;;;12.45;65.48
13593;BME280;6867;50.998;4.250;2023-04-19T03:12:05;102099.13;;;12.36;66.08
13593;BME280;6867;50.998;4.250;2023-04-19T03:14:32;102104.16;;;12.39;65.94
13593;BME280;6867;50.998;4.250;2023-04-19T03:16:59;102101.56;;;12.31;65.67
13593;BME280;6867;50.998;4.250;2023-04-19T03:19:26;102101.19;;;12.34;65.62
13593;BME280;6867;50.998;4.250;2023-04-19T03:21:52;102090.31;;;12.42;65.27
13593;BME280;6867;50.998;4.250;2023-04-19T03:24:26;102100.06;;;12.43;65.55
13593;BME280;6867;50.998;4.250;2023-04-19T03:26:53;102101.47;;;12.39;65.83
13593;BME280;6867;50.998;4.250;2023-04-19T03:29:20;102108.25;;;12.35;66.06
13593;BME280;6867;50.998;4.250;2023-04-19T03:31:46;102097.94;;;12.09;66.05
13593;BME280;6867;50.998;4.250;2023-04-19T03:34:14;102095.44;;;12.37;65.95
13593;BME280;6867;50.998;4.250;2023-04-19T03:36:41;102095.03;;;12.40;65.87
13593;BME280;6867;50.998;4.250;2023-04-19T03:39:07;102095.88;;;12.41;65.79
13593;BME280;6867;50.998;4.250;2023-04-19T03:41:36;102099.53;;;12.33;65.87
13593;BME280;6867;50.998;4.250;2023-04-19T03:44:02;102100.06;;;12.43;66.13
13593;BME280;6867;50.998;4.250;2023-04-19T03:46:29;102108.78;;;12.45;66.11
13593;BME280;6867;50.998;4.250;2023-04-19T03:48:57;102102.97;;;12.42;66.00
13593;BME280;6867;50.998;4.250;2023-04-19T03:51:23;102117.91;;;12.44;66.52
13593;BME280;6867;50.998;4.250;2023-04-19T03:53:51;102105.66;;;12.42;66.22
13593;BME280;6867;50.998;4.250;2023-04-19T03:56:18;102114.16;;;12.45;66.28
13593;BME280;6867;50.998;4.250;2023-04-19T03:58:46;102111.03;;;12.42;66.46
13593;BME280;6867;50.998;4.250;2023-04-19T04:01:17;102105.97;;;12.54;66.19
13593;BME280;6867;50.998;4.250;2023-04-19T04:03:43;102112.03;;;12.56;66.29
13593;BME280;6867;50.998;4.250;2023-04-19T04:06:10;102110.66;;;12.45;66.47
13593;BME280;6867;50.998;4.250;2023-04-19T04:08:37;102102.81;;;12.65;66.34
13593;BME280;6867;50.998;4.250;2023-04-19T04:11:03;102097.28;;;12.52;66.29
13593;BME280;6867;50.998;4.250;2023-04-19T04:13:30;102099.19;;;12.58;66.15
13593;BME280;6867;50.998;4.250;2023-04-19T04:15:58;102120.59;;;12.44;66.60
13593;BME280;6867;50.998;4.250;2023-04-19T04:18:25;102117.63;;;12.39;66.92
13593;BME280;6867;50.998;4.250;2023-04-19T04:20:52;102115.88;;;12.46;66.67
13593;BME280;6867;50.998;4.250;2023-04-19T04:23:19;102126.53;;;12.40;67.11
13593;BME280;6867;50.998;4.250;2023-04-19T04:25:47;102125.72;;;12.39;67.08
13593;BME280;6867;50.998;4.250;2023-04-19T04:28:22;102129.91;;;12.42;67.22
13593;BME280;6867;50.998;4.250;2023-04-19T04:30:48;102125.81;;;12.46;66.80
13593;BME280;6867;50.998;4.250;2023-04-19T04:33:17;102136.84;;;12.36;67.27
13593;BME280;6867;50.998;4.250;2023-04-19T04:35:44;102140.88;;;12.26;67.55
13593;BME280;6867;50.998;4.250;2023-04-19T04:38:10;102144.66;;;12.31;67.40
13593;BME280;6867;50.998;4.250;2023-04-19T04:40:37;102147.09;;;12.26;67.32
13593;BME280;6867;50.998;4.250;2023-04-19T04:43:04;102164.72;;;12.14;68.27
13593;BME280;6867;50.998;4.250;2023-04-19T04:45:32;102160.09;;;12.23;68.04
13593;BME280;6867;50.998;4.250;2023-04-19T04:47:59;102160.38;;;12.42;67.88
13593;BME280;6867;50.998;4.250;2023-04-19T04:50:27;102167.25;;;12.30;68.11
13593;BME280;6867;50.998;4.250;2023-04-19T04:52:54;102154.06;;;12.35;67.80
13593;BME280;6867;50.998;4.250;2023-04-19T04:55:21;102164.28;;;12.25;67.98
13593;BME280;6867;50.998;4.250;2023-04-19T04:57:47;102158.66;;;12.12;67.55
13593;BME280;6867;50.998;4.250;2023-04-19T05:00:15;102187.72;;;12.02;68.27
13593;BME280;6867;50.998;4.250;2023-04-19T05:02:42;102182.19;;;11.80;68.71
13593;BME280;6867;50.998;4.250;2023-04-19T05:05:08;102199.97;;;11.89;69.19
13593;BME280;6867;50.998;4.250;2023-04-19T05:07:37;102199.78;;;11.91;69.43
13593;BME280;6867;50.998;4.250;2023-04-19T05:10:05;102189.31;;;11.96;69.38
13593;BME280;6867;50.998;4.250;2023-04-19T05:12:33;102191.88;;;11.89;69.58
13593;BME280;6867;50.998;4.250;2023-04-19T05:14:59;102200.31;;;11.86;69.77
13593;BME280;6867;50.998;4.250;2023-04-19T05:17:26;102190.63;;;12.00;69.27
13593;BME280;6867;50.998;4.250;2023-04-19T05:19:52;102192.84;;;11.96;69.28
13593;BME280;6867;50.998;4.250;2023-04-19T05:22:19;102194.97;;;12.01;69.69
13593;BME280;6867;50.998;4.250;2023-04-19T05:24:47;102198.50;;;12.02;69.75
13593;BME280;6867;50.998;4.250;2023-04-19T05:27:15;102203.34;;;12.06;70.16
13593;BME280;6867;50.998;4.250;2023-04-19T05:29:41;102195.19;;;12.14;69.60
13593;BME280;6867;50.998;4.250;2023-04-19T05:32:08;102201.88;;;12.18;69.67
13593;BME280;6867;50.998;4.250;2023-04-19T05:34:35;102198.00;;;12.21;69.44
13593;BME280;6867;50.998;4.250;2023-04-19T05:37:02;102190.47;;;12.31;69.26
13593;BME280;6867;50.998;4.250;2023-04-19T05:39:29;102196.88;;;12.30;69.30
13593;BME280;6867;50.998;4.250;2023-04-19T05:41:57;102196.53;;;12.48;69.11
13593;BME280;6867;50.998;4.250;2023-04-19T05:44:24;102182.22;;;12.48;68.86
13593;BME280;6867;50.998;4.250;2023-04-19T05:46:51;102186.84;;;12.54;68.83
13593;BME280;6867;50.998;4.250;2023-04-19T05:49:17;102178.22;;;12.58;68.41
13593;BME280;6867;50.998;4.250;2023-04-19T05:51:44;102179.75;;;12.82;67.99
13593;BME280;6867;50.998;4.250;2023-04-19T05:54:11;102165.66;;;12.65;67.80
13593;BME280;6867;50.998;4.250;2023-04-19T05:56:38;102173.38;;;12.83;67.89
13593;BME280;6867;50.998;4.250;2023-04-19T05:59:06;102183.38;;;13.04;68.06
13593;BME280;6867;50.998;4.250;2023-04-19T06:01:35;102171.41;;;13.28;67.04
13593;BME280;6867;50.998;4.250;2023-04-19T06:04:02;102165.50;;;13.39;66.90
13593;BME280;6867;50.998;4.250;2023-04-19T06:06:29;102156.47;;;13.47;66.24
13593;BME280;6867;50.998;4.250;2023-04-19T06:08:56;102159.91;;;13.41;66.49
13593;BME280;6867;50.998;4.250;2023-04-19T06:11:22;102147.66;;;13.60;65.94
13593;BME280;6867;50.998;4.250;2023-04-19T06:13:49;102141.97;;;13.76;65.55
13593;BME280;6867;50.998;4.250;2023-04-19T06:16:17;102147.13;;;13.71;65.14
13593;BME280;6867;50.998;4.250;2023-04-19T06:18:44;102147.53;;;13.75;65.24
13593;BME280;6867;50.998;4.250;2023-04-19T06:21:11;102141.03;;;13.90;64.93
13593;BME280;6867;50.998;4.250;2023-04-19T06:23:38;102137.75;;;13.95;64.59
13593;BME280;6867;50.998;4.250;2023-04-19T06:26:05;102133.06;;;14.10;64.43
13593;BME280;6867;50.998;4.250;2023-04-19T06:28:31;102137.97;;;14.28;63.72
13593;BME280;6867;50.998;4.250;2023-04-19T06:30:58;102115.72;;;14.33;62.93
13593;BME280;6867;50.998;4.250;2023-04-19T06:33:26;102130.69;;;14.63;62.96
13593;BME280;6867;50.998;4.250;2023-04-19T06:35:53;102106.41;;;14.83;62.30
13593;BME280;6867;50.998;4.250;2023-04-19T06:38:20;102103.75;;;14.97;62.02
13593;BME280;6867;50.998;4.250;2023-04-19T06:40:46;102093.25;;;14.67;62.17
13593;BME280;6867;50.998;4.250;2023-04-19T06:43:13;102094.53;;;14.78;62.04
13593;BME280;6867;50.998;4.250;2023-04-19T06:45:40;102110.72;;;14.64;62.64
13593;BME280;6867;50.998;4.250;2023-04-19T06:48:06;102100.38;;;14.88;61.98
13593;BME280;6867;50.998;4.250;2023-04-19T06:50:34;102098.16;;;15.11;61.56
13593;BME280;6867;50.998;4.250;2023-04-19T06:53:01;102074.00;;;15.16;61.05
13593;BME280;6867;50.998;4.250;2023-04-19T06:55:28;102069.44;;;15.17;60.70
13593;BME280;6867;50.998;4.250;2023-04-19T06:57:54;102075.09;;;15.22;60.74
13593;BME280;6867;50.998;4.250;2023-04-19T07:00:21;102074.88;;;15.63;60.49
13593;BME280;6867;50.998;4.250;2023-04-19T07:02:48;102055.28;;;15.61;59.69
13593;BME280;6867;50.998;4.250;2023-04-19T07:05:15;102040.50;;;15.71;59.10
13593;BME280;6867;50.998;4.250;2023-04-19T07:07:43;102044.81;;;16.05;58.94
13593;BME280;6867;50.998;4.250;2023-04-19T07:10:10;102014.63;;;15.94;58.05
13593;BME280;6867;50.998;4.250;2023-04-19T07:12:37;102014.19;;;15.98;57.99
13593;BME280;6867;50.998;4.250;2023-04-19T07:15:04;102034.91;;;15.65;58.75
13593;BME280;6867;50.998;4.250;2023-04-19T07:17:33;102033.22;;;15.51;58.77
13593;BME280;6867;50.998;4.250;2023-04-19T07:20:00;102036.97;;;15.37;59.17
13593;BME280;6867;50.998;4.250;2023-04-19T07:22:26;102090.06;;;15.38;60.32
13593;BME280;6867;50.998;4.250;2023-04-19T07:24:55;102073.63;;;15.26;60.33
13593;BME280;6867;50.998;4.250;2023-04-19T07:27:21;102087.16;;;15.33;60.48
13593;BME280;6867;50.998;4.250;2023-04-19T07:29:48;102080.47;;;15.42;60.23
13593;BME280;6867;50.998;4.250;2023-04-19T07:32:15;102075.50;;;15.39;60.10
13593;BME280;6867;50.998;4.250;2023-04-19T07:34:42;102066.97;;;15.55;59.89
13593;BME280;6867;50.998;4.250;2023-04-19T07:37:10;102061.16;;;15.65;59.48
13593;BME280;6867;50.998;4.250;2023-04-19T07:39:37;102056.34;;;15.67;59.82
13593;BME280;6867;50.998;4.250;2023-04-19T07:42:05;102044.28;;;15.76;58.90
13593;BME280;6867;50.998;4.250;2023-04-19T07:44:31;102036.38;;;15.68;58.82
13593;BME280;6867;50.998;4.250;2023-04-19T07:46:58;102058.38;;;15.98;59.14
13593;BME280;6867;50.998;4.250;2023-04-19T07:49:25;102064.66;;;15.45;59.51
13593;BME280;6867;50.998;4.250;2023-04-19T07:51:51;102055.28;;;15.41;59.38
13593;BME280;6867;50.998;4.250;2023-04-19T07:54:18;102040.94;;;15.48;59.14
13593;BME280;6867;50.998;4.250;2023-04-19T07:56:45;102061.56;;;15.68;59.19
13593;BME280;6867;50.998;4.250;2023-04-19T07:59:14;102060.94;;;15.66;58.88
13593;BME280;6867;50.998;4.250;2023-04-19T08:01:41;102065.47;;;15.92;58.76
13593;BME280;6867;50.998;4.250;2023-04-19T08:04:08;102050.09;;;15.73;58.73
13593;BME280;6867;50.998;4.250;2023-04-19T08:06:36;102068.50;;;16.29;58.21
13593;BME280;6867;50.998;4.250;2023-04-19T08:09:03;102036.59;;;16.25;57.52
13593;BME280;6867;50.998;4.250;2023-04-19T08:11:30;102054.53;;;16.26;57.77
13593;BME280;6867;50.998;4.250;2023-04-19T08:13:57;102036.84;;;16.23;57.54
13593;BME280;6867;50.998;4.250;2023-04-19T08:16:25;102024.16;;;16.55;56.88
13593;BME280;6867;50.998;4.250;2023-04-19T08:18:52;102025.88;;;16.88;56.42
13593;BME280;6867;50.998;4.250;2023-04-19T08:21:19;102000.97;;;16.59;56.38
13593;BME280;6867;50.998;4.250;2023-04-19T08:23:45;102001.16;;;16.26;56.90
13593;BME280;6867;50.998;4.250;2023-04-19T08:26:12;102029.94;;;16.65;56.66
13593;BME280;6867;50.998;4.250;2023-04-19T08:28:39;102044.81;;;16.56;57.02
13593;BME280;6867;50.998;4.250;2023-04-19T08:31:05;102037.66;;;17.07;56.10
13593;BME280;6867;50.998;4.250;2023-04-19T08:33:34;102011.38;;;17.01;55.85
13593;BME280;6867;50.998;4.250;2023-04-19T08:36:00;102034.97;;;17.00;56.14
13593;BME280;6867;50.998;4.250;2023-04-19T08:38:27;102013.03;;;16.70;56.13
13593;BME280;6867;50.998;4.250;2023-04-19T08:40:54;102012.44;;;16.68;56.05
13593;BME280;6867;50.998;4.250;2023-04-19T08:43:20;102038.78;;;16.92;56.36
13593;BME280;6867;50.998;4.250;2023-04-19T08:45:50;102009.19;;;17.16;55.19
13593;BME280;6867;50.998;4.250;2023-04-19T08:48:17;101994.69;;;17.22;55.14
13593;BME280;6867;50.998;4.250;2023-04-19T08:50:46;101977.69;;;17.33;54.39
13593;BME280;6867;50.998;4.250;2023-04-19T08:53:14;101997.88;;;17.44;54.74
13593;BME280;6867;50.998;4.250;2023-04-19T08:55:44;101990.94;;;17.66;54.37
13593;BME280;6867;50.998;4.250;2023-04-19T08:58:11;101943.53;;;17.44;53.35
13593;BME280;6867;50.998;4.250;2023-04-19T09:00:38;101972.31;;;17.52;53.97
13593;BME280;6867;50.998;4.250;2023-04-19T09:03:06;101968.78;;;17.88;53.21
13593;BME280;6867;50.998;4.250;2023-04-19T09:05:33;101929.59;;;17.96;52.38
13593;BME280;6867;50.998;4.250;2023-04-19T09:08:22;101913.78;;;18.23;51.77
13593;BME280;6867;50.998;4.250;2023-04-19T09:10:54;101893.81;;;17.80;51.79
13593;BME280;6867;50.998;4.250;2023-04-19T09:13:21;101917.50;;;17.55;52.65
13593;BME280;6867;50.998;4.250;2023-04-19T09:15:48;101910.06;;;17.68;52.11
13593;BME280;6867;50.998;4.250;2023-04-19T09:18:15;101913.25;;;17.22;52.94
13593;BME280;6867;50.998;4.250;2023-04-19T09:20:43;101922.09;;;17.54;52.50
13593;BME280;6867;50.998;4.250;2023-04-19T09:23:12;101904.38;;;17.88;51.68
13593;BME280;6867;50.998;4.250;2023-04-19T09:25:50;101910.13;;;18.29;51.13
13593;BME280;6867;50.998;4.250;2023-04-19T09:28:18;101896.88;;;18.32;51.02
13593;BME280;6867;50.998;4.250;2023-04-19T09:30:44;101909.00;;;18.48;51.10
13593;BME280;6867;50.998;4.250;2023-04-19T09:33:12;101805.88;;;18.05;49.35
13593;BME280;6867;50.998;4.250;2023-04-19T09:35:40;101842.69;;;17.89;49.95
13593;BME280;6867;50.998;4.250;2023-04-19T09:38:06;101828.06;;;17.90;49.60
13593;BME280;6867;50.998;4.250;2023-04-19T09:40:34;101866.50;;;17.94;50.18
13593;BME280;6867;50.998;4.250;2023-04-19T09:43:02;101821.69;;;17.96;49.41
13593;BME280;6867;50.998;4.250;2023-04-19T09:45:39;101836.38;;;18.07;49.65
13593;BME280;6867;50.998;4.250;2023-04-19T09:48:06;101839.13;;;18.07;49.42
13593;BME280;6867;50.998;4.250;2023-04-19T09:50:33;101876.41;;;18.30;50.12
13593;BME280;6867;50.998;4.250;2023-04-19T09:53:01;101808.38;;;18.18;48.99
13593;BME280;6867;50.998;4.250;2023-04-19T09:55:28;101858.31;;;18.24;49.66
13593;BME280;6867;50.998;4.250;2023-04-19T09:57:56;101843.59;;;18.13;49.59
13593;BME280;6867;50.998;4.250;2023-04-19T10:00:24;101802.00;;;18.12;48.89
13593;BME280;6867;50.998;4.250;2023-04-19T10:02:51;101848.53;;;18.46;49.50
13593;BME280;6867;50.998;4.250;2023-04-19T10:05:23;101845.69;;;18.41;49.44
13593;BME280;6867;50.998;4.250;2023-04-19T10:07:49;101770.22;;;18.25;48.07
13593;BME280;6867;50.998;4.250;2023-04-19T10:10:17;101794.69;;;18.25;48.47
13593;BME280;6867;50.998;4.250;2023-04-19T10:12:47;101776.16;;;18.45;47.68
13593;BME280;6867;50.998;4.250;2023-04-19T10:15:15;101809.50;;;18.64;48.50
13593;BME280;6867;50.998;4.250;2023-04-19T10:17:43;101753.47;;;18.75;46.99
13593;BME280;6867;50.998;4.250;2023-04-19T10:20:15;101813.44;;;18.91;48.12
13593;BME280;6867;50.998;4.250;2023-04-19T10:22:43;101730.22;;;18.96;46.46
13593;BME280;6867;50.998;4.250;2023-04-19T10:25:11;101776.59;;;19.24;47.02
13593;BME280;6867;50.998;4.250;2023-04-19T10:27:38;101779.53;;;19.92;46.41
13593;BME280;6867;50.998;4.250;2023-04-19T10:30:06;101756.16;;;20.12;45.60
13593;BME280;6867;50.998;4.250;2023-04-19T10:32:44;101715.00;;;19.97;44.91
13593;BME280;6867;50.998;4.250;2023-04-19T10:35:17;101678.06;;;19.89;44.36
13593;BME280;6867;50.998;4.250;2023-04-19T10:38:03;101728.28;;;19.77;45.40
13593;BME280;6867;50.998;4.250;2023-04-19T10:40:54;101800.22;;;20.04;46.41
13593;BME280;6867;50.998;4.250;2023-04-19T10:43:22;101674.69;;;19.82;44.31
13593;BME280;6867;50.998;4.250;2023-04-19T10:45:50;101683.50;;;20.06;44.20
13593;BME280;6867;50.998;4.250;2023-04-19T10:48:40;101711.13;;;19.93;44.80
13593;BME280;6867;50.998;4.250;2023-04-19T10:51:13;101738.66;;;20.25;45.07
13593;BME280;6867;50.998;4.250;2023-04-19T10:53:48;101676.03;;;20.35;43.58
13593;BME280;6867;50.998;4.250;2023-04-19T10:56:17;101643.78;;;19.77;43.98
13593;BME280;6867;50.998;4.250;2023-04-19T10:59:12;101692.25;;;20.25;44.03
13593;BME280;6867;50.998;4.250;2023-04-19T11:01:48;101688.56;;;19.98;44.38
13593;BME280;6867;50.998;4.250;2023-04-19T11:04:18;101608.91;;;19.96;42.76
13593;BME280;6867;50.998;4.250;2023-04-19T11:06:59;101683.97;;;20.54;43.32
13593;BME280;6867;50.998;4.250;2023-04-19T11:09:29;101671.38;;;20.70;43.30
13593;BME280;6867;50.998;4.250;2023-04-19T11:11:58;101588.63;;;21.23;41.01
13593;BME280;6867;50.998;4.250;2023-04-19T11:14:29;101628.91;;;21.60;41.71
13593;BME280;6867;50.998;4.250;2023-04-19T11:16:57;101597.47;;;21.30;41.33
13593;BME280;6867;50.998;4.250;2023-04-19T11:19:25;101560.25;;;20.97;41.05
13593;BME280;6867;50.998;4.250;2023-04-19T11:21:57;101585.50;;;20.60;41.68
13593;BME280;6867;50.998;4.250;2023-04-19T11:24:24;101625.00;;;21.24;41.82
13593;BME280;6867;50.998;4.250;2023-04-19T11:26:51;101538.72;;;20.08;41.29
13593;BME280;6867;50.998;4.250;2023-04-19T11:29:18;101582.34;;;19.69;42.68
13593;BME280;6867;50.998;4.250;2023-04-19T11:31:46;101633.91;;;19.59;43.81
13593;BME280;6867;50.998;4.250;2023-04-19T11:34:12;101657.72;;;19.80;43.44
13593;BME280;6867;50.998;4.250;2023-04-19T11:36:48;101651.94;;;19.94;43.47
13593;BME280;6867;50.998;4.250;2023-04-19T11:39:15;101609.88;;;20.23;42.30
13593;BME280;6867;50.998;4.250;2023-04-19T11:41:42;101600.00;;;20.22;42.24
13593;BME280;6867;50.998;4.250;2023-04-19T11:44:12;101654.34;;;20.46;43.30
13593;BME280;6867;50.998;4.250;2023-04-19T11:46:40;101596.44;;;20.60;42.05
13593;BME280;6867;50.998;4.250;2023-04-19T11:49:06;101628.75;;;20.91;42.20
13593;BME280;6867;50.998;4.250;2023-04-19T11:51:33;101486.47;;;20.16;40.64
13593;BME280;6867;50.998;4.250;2023-04-19T11:54:11;101534.56;;;20.44;40.79
13593;BME280;6867;50.998;4.250;2023-04-19T11:57:00;101579.75;;;20.57;41.54
13593;BME280;6867;50.998;4.250;2023-04-19T11:59:28;101488.75;;;20.02;40.51
13593;BME280;6867;50.998;4.250;2023-04-19T12:01:55;101474.53;;;20.22;39.89
13593;BME280;6867;50.998;4.250;2023-04-19T12:04:21;101481.25;;;20.14;40.23
13593;BME280;6867;50.998;4.250;2023-04-19T12:06:56;101476.44;;;20.00;40.16
13593;BME280;6867;50.998;4.250;2023-04-19T12:09:24;101467.50;;;20.04;39.78
13593;BME280;6867;50.998;4.250;2023-04-19T12:11:51;101447.47;;;20.15;39.60
13593;BME280;6867;50.998;4.250;2023-04-19T12:14:19;101411.09;;;20.10;38.80
13593;BME280;6867;50.998;4.250;2023-04-19T12:17:02;101365.31;;;20.12;37.62
13593;BME280;6867;50.998;4.250;2023-04-19T12:19:34;101431.75;;;20.50;38.53
13593;BME280;6867;50.998;4.250;2023-04-19T12:22:07;101395.56;;;20.64;37.73
13593;BME280;6867;50.998;4.250;2023-04-19T12:24:36;101229.63;;;20.29;35.09
13593;BME280;6867;50.998;4.250;2023-04-19T12:27:03;101257.94;;;20.50;34.96
13593;BME280;6867;50.998;4.250;2023-04-19T12:29:30;101264.28;;;20.61;35.08
13593;BME280;6867;50.998;4.250;2023-04-19T12:31:57;101289.25;;;20.85;35.17
13593;BME280;6867;50.998;4.250;2023-04-19T12:34:23;101335.00;;;20.68;35.88
13593;BME280;6867;50.998;4.250;2023-04-19T12:36:50;101381.63;;;20.93;36.58
13593;BME280;6867;50.998;4.250;2023-04-19T12:39:17;101064.56;;;20.22;32.58
13593;BME280;6867;50.998;4.250;2023-04-19T12:41:45;101166.88;;;20.24;33.82
13593;BME280;6867;50.998;4.250;2023-04-19T12:44:13;101267.38;;;20.43;34.80
13593;BME280;6867;50.998;4.250;2023-04-19T12:46:40;101154.59;;;20.27;33.02
13593;BME280;6867;50.998;4.250;2023-04-19T12:49:06;101207.63;;;20.04;34.64
13593;BME280;6867;50.998;4.250;2023-04-19T12:51:33;101158.56;;;20.09;33.17
13593;BME280;6867;50.998;4.250;2023-04-19T12:54:00;101189.59;;;19.71;34.47
13593;BME280;6867;50.998;4.250;2023-04-19T12:56:27;101187.75;;;19.76;33.83
13593;BME280;6867;50.998;4.250;2023-04-19T12:58:55;101205.78;;;20.14;34.13
13593;BME280;6867;50.998;4.250;2023-04-19T13:01:22;101171.25;;;19.93;33.68
13593;BME280;6867;50.998;4.250;2023-04-19T13:03:48;101178.00;;;20.18;33.24